sensor_id;sensor_type;location;lat;lon;timestamp;temperature;humidity
5647;DHT22;2845;48.626;9.362;2024-03-06T00:02:17;5.80;99.90
5647;DHT22;2845;48.626;9.362;2024-03-06T00:04:51;5.70;99.90
5647;DHT22;2845;48.626;9.362;2024-03-06T00:07:27;5.70;99.90
5647;DHT22;2845;48.626;9.362;2024-03-06T00:10:01;5.80;99.90
5647;DHT22;2845;48.626;9.362;2024-03-06T00:12:37;5.80;99.90
5647;DHT22;2845;48.626;9.362;2024-03-06T00:15:13;5.80;99.90
5647;DHT22;2845;48.626;9.362;2024-03-06T00:17:47;5.80;99.90
5647;DHT22;2845;48.626;9.362;2024-03-06T00:20:22;5.90;99.90
5647;DHT22;2845;48.626;9.362;2024-03-06T00:22:56;5.90;99.90
5647;DHT22;2845;48.626;9.362;2024-03-06T00:25:32;5.80;99.90
5647;DHT22;2845;48.626;9.362;2024-03-06T00:28:07;5.80;99.90
5647;DHT22;2845;48.626;9.362;2024-03-06T00:30:42;5.80;99.90
5647;DHT22;2845;48.626;9.362;2024-03-06T00:33:16;5.80;99.90
5647;DHT22;2845;48.626;9.362;2024-03-06T00:35:50;5.70;99.90
5647;DHT22;2845;48.626;9.362;2024-03-06T00:38:24;5.70;99.90
5647;DHT22;2845;48.626;9.362;2024-03-06T00:40:59;5.70;99.90
5647;DHT22;2845;48.626;9.362;2024-03-06T00:43:33;5.60;99.90
5647;DHT22;2845;48.626;9.362;2024-03-06T00:46:08;5.60;99.90
5647;DHT22;2845;48.626;9.362;2024-03-06T00:48:42;5.60;99.90
5647;DHT22;2845;48.626;9.362;2024-03-06T00:51:16;5.60;99.90
5647;DHT22;2845;48.626;9.362;2024-03-06T00:53:56;5.50;99.90
5647;DHT22;2845;48.626;9.362;2024-03-06T00:56:30;5.50;99.90
5647;DHT22;2845;48.626;9.362;2024-03-06T00:59:03;5.40;99.90
5647;DHT22;2845;48.626;9.362;2024-03-06T01:01:39;5.40;99.90
5647;DHT22;2845;48.626;9.362;2024-03-06T01:04:14;5.40;99.90
5647;DHT22;2845;48.626;9.362;2024-03-06T01:06:48;5.40;99.90
5647;DHT22;2845;48.626;9.362;2024-03-06T01:09:22;5.30;99.90
5647;DHT22;2845;48.626;9.362;2024-03-06T01:11:57;5.20;99.90
5647;DHT22;2845;48.626;9.362;2024-03-06T01:14:31;5.20;99.90
5647;DHT22;2845;48.626;9.362;2024-03-06T01:17:10;5.20;99.90
5647;DHT22;2845;48.626;9.362;2024-03-06T01:19:44;5.10;99.90
5647;DHT22;2845;48.626;9.362;2024-03-06T01:22:18;5.10;99.90
5647;DHT22;2845;48.626;9.362;2024-03-06T01:24:52;5.10;99.90
5647;DHT22;2845;48.626;9.362;2024-03-06T01:27:26;5.00;99.90
5647;DHT22;2845;48.626;9.362;2024-03-06T01:30:00;5.20;99.90
5647;DHT22;2845;48.626;9.362;2024-03-06T01:32:36;5.10;99.90
5647;DHT22;2845;48.626;9.362;2024-03-06T01:35:10;5.00;99.90
5647;DHT22;2845;48.626;9.362;2024-03-06T01:37:45;5.00;99.90
5647;DHT22;2845;48.626;9.362;2024-03-06T01:40:19;4.90;99.90
5647;DHT22;2845;48.626;9.362;2024-03-06T01:42:53;4.90;99.90
5647;DHT22;2845;48.626;9.362;2024-03-06T01:45:27;5.00;99.90
5647;DHT22;2845;48.626;9.362;2024-03-06T01:48:03;4.90;99.90
5647;DHT22;2845;48.626;9.362;2024-03-06T01:50:39;4.90;99.90
5647;DHT22;2845;48.626;9.362;2024-03-06T01:53:13;4.90;99.90
5647;DHT22;2845;48.626;9.362;2024-03-06T01:55:48;5.00;99.90
5647;DHT22;2845;48.626;9.362;2024-03-06T01:58:23;5.00;99.90
5647;DHT22;2845;48.626;9.362;2024-03-06T02:00:57;6.80;99.90
5647;DHT22;2845;48.626;9.362;2024-03-06T02:03:33;5.00;99.90
5647;DHT22;2845;48.626;9.362;2024-03-06T02:06:08;5.00;99.90
5647;DHT22;2845;48.626;9.362;2024-03-06T02:08:44;5.10;99.90
5647;DHT22;2845;48.626;9.362;2024-03-06T02:11:18;5.00;99.90
5647;DHT22;2845;48.626;9.362;2024-03-06T02:13:53;5.00;99.90
5647;DHT22;2845;48.626;9.362;2024-03-06T02:16:27;5.00;99.90
5647;DHT22;2845;48.626;9.362;2024-03-06T02:19:02;5.10;99.90
5647;DHT22;2845;48.626;9.362;2024-03-06T02:21:38;5.10;99.90
5647;DHT22;2845;48.626;9.362;2024-03-06T02:24:12;5.10;99.90
5647;DHT22;2845;48.626;9.362;2024-03-06T02:26:47;5.10;99.90
5647;DHT22;2845;48.626;9.362;2024-03-06T02:29:23;5.10;99.90
5647;DHT22;2845;48.626;9.362;2024-03-06T02:31:57;5.10;99.90
5647;DHT22;2845;48.626;9.362;2024-03-06T02:34:31;5.20;99.90
5647;DHT22;2845;48.626;9.362;2024-03-06T02:37:07;5.60;99.90
5647;DHT22;2845;48.626;9.362;2024-03-06T02:39:42;5.10;99.90
5647;DHT22;2845;48.626;9.362;2024-03-06T02:42:16;5.10;99.90
5647;DHT22;2845;48.626;9.362;2024-03-06T02:44:50;5.10;99.90
5647;DHT22;2845;48.626;9.362;2024-03-06T02:47:24;5.10;99.90
5647;DHT22;2845;48.626;9.362;2024-03-06T02:49:58;5.10;99.90
5647;DHT22;2845;48.626;9.362;2024-03-06T02:52:34;5.10;99.90
5647;DHT22;2845;48.626;9.362;2024-03-06T02:55:08;5.10;99.90
5647;DHT22;2845;48.626;9.362;2024-03-06T02:57:43;5.10;99.90
5647;DHT22;2845;48.626;9.362;2024-03-06T03:00:17;5.10;99.90
5647;DHT22;2845;48.626;9.362;2024-03-06T03:02:51;5.10;99.90
5647;DHT22;2845;48.626;9.362;2024-03-06T03:05:25;5.20;99.90
5647;DHT22;2845;48.626;9.362;2024-03-06T03:08:01;5.10;99.90
5647;DHT22;2845;48.626;9.362;2024-03-06T03:10:36;5.20;99.90
5647;DHT22;2845;48.626;9.362;2024-03-06T03:13:10;5.20;99.90
5647;DHT22;2845;48.626;9.362;2024-03-06T03:15:44;5.20;99.90
5647;DHT22;2845;48.626;9.362;2024-03-06T03:18:19;5.20;99.90
5647;DHT22;2845;48.626;9.362;2024-03-06T03:20:54;5.30;99.90
5647;DHT22;2845;48.626;9.362;2024-03-06T03:23:29;5.20;99.90
5647;DHT22;2845;48.626;9.362;2024-03-06T03:26:03;5.20;99.90
5647;DHT22;2845;48.626;9.362;2024-03-06T03:28:38;5.20;99.90
5647;DHT22;2845;48.626;9.362;2024-03-06T03:31:13;5.20;99.90
5647;DHT22;2845;48.626;9.362;2024-03-06T03:33:47;5.10;99.90
5647;DHT22;2845;48.626;9.362;2024-03-06T03:36:21;5.10;99.90
5647;DHT22;2845;48.626;9.362;2024-03-06T03:38:56;5.10;99.90
5647;DHT22;2845;48.626;9.362;2024-03-06T03:41:30;5.10;99.90
5647;DHT22;2845;48.626;9.362;2024-03-06T03:44:04;5.00;99.90
5647;DHT22;2845;48.626;9.362;2024-03-06T03:46:38;5.10;99.90
5647;DHT22;2845;48.626;9.362;2024-03-06T03:49:13;5.10;99.90
5647;DHT22;2845;48.626;9.362;2024-03-06T03:51:47;5.10;99.90
5647;DHT22;2845;48.626;9.362;2024-03-06T03:54:22;5.10;99.90
5647;DHT22;2845;48.626;9.362;2024-03-06T03:56:57;5.20;99.90
5647;DHT22;2845;48.626;9.362;2024-03-06T03:59:31;5.10;99.90
5647;DHT22;2845;48.626;9.362;2024-03-06T04:02:05;5.10;99.90
5647;DHT22;2845;48.626;9.362;2024-03-06T04:04:40;5.20;99.90
5647;DHT22;2845;48.626;9.362;2024-03-06T04:07:14;5.40;99.90
5647;DHT22;2845;48.626;9.362;2024-03-06T04:09:50;5.20;99.90
5647;DHT22;2845;48.626;9.362;2024-03-06T04:12:24;5.20;99.90
5647;DHT22;2845;48.626;9.362;2024-03-06T04:14:58;5.20;99.90
5647;DHT22;2845;48.626;9.362;2024-03-06T04:17:34;5.10;99.90
5647;DHT22;2845;48.626;9.362;2024-03-06T04:20:10;5.10;99.90
5647;DHT22;2845;48.626;9.362;2024-03-06T04:22:45;5.20;99.90
5647;DHT22;2845;48.626;9.362;2024-03-06T04:25:22;5.10;99.90
5647;DHT22;2845;48.626;9.362;2024-03-06T04:27:56;5.20;99.90
5647;DHT22;2845;48.626;9.362;2024-03-06T04:30:30;5.20;99.90
5647;DHT22;2845;48.626;9.362;2024-03-06T04:33:04;5.20;99.90
5647;DHT22;2845;48.626;9.362;2024-03-06T04:35:38;5.20;99.90
5647;DHT22;2845;48.626;9.362;2024-03-06T04:38:12;5.20;99.90
5647;DHT22;2845;48.626;9.362;2024-03-06T04:40:48;5.30;99.90
5647;DHT22;2845;48.626;9.362;2024-03-06T04:43:22;5.30;99.90
5647;DHT22;2845;48.626;9.362;2024-03-06T04:45:56;5.40;99.90
5647;DHT22;2845;48.626;9.362;2024-03-06T04:48:30;6.50;99.90
5647;DHT22;2845;48.626;9.362;2024-03-06T04:51:04;5.30;99.90
5647;DHT22;2845;48.626;9.362;2024-03-06T04:53:38;5.30;99.90
5647;DHT22;2845;48.626;9.362;2024-03-06T04:56:16;5.30;99.90
5647;DHT22;2845;48.626;9.362;2024-03-06T04:58:52;5.30;99.90
5647;DHT22;2845;48.626;9.362;2024-03-06T05:01:26;5.30;99.90
5647;DHT22;2845;48.626;9.362;2024-03-06T05:04:01;5.30;99.90
5647;DHT22;2845;48.626;9.362;2024-03-06T05:06:54;5.40;99.90
5647;DHT22;2845;48.626;9.362;2024-03-06T05:09:45;5.40;99.90
5647;DHT22;2845;48.626;9.362;2024-03-06T05:12:38;5.40;99.90
5647;DHT22;2845;48.626;9.362;2024-03-06T05:15:30;5.40;99.90
5647;DHT22;2845;48.626;9.362;2024-03-06T05:18:22;5.40;99.90
5647;DHT22;2845;48.626;9.362;2024-03-06T05:21:13;5.40;99.90
5647;DHT22;2845;48.626;9.362;2024-03-06T05:24:05;5.40;99.90
5647;DHT22;2845;48.626;9.362;2024-03-06T05:26:56;5.40;99.90
5647;DHT22;2845;48.626;9.362;2024-03-06T05:29:49;5.40;99.90
5647;DHT22;2845;48.626;9.362;2024-03-06T05:32:41;5.40;99.90
5647;DHT22;2845;48.626;9.362;2024-03-06T05:35:33;5.40;99.90
5647;DHT22;2845;48.626;9.362;2024-03-06T05:38:24;5.20;99.90
5647;DHT22;2845;48.626;9.362;2024-03-06T05:41:15;5.40;99.90
5647;DHT22;2845;48.626;9.362;2024-03-06T05:44:09;5.40;99.90
5647;DHT22;2845;48.626;9.362;2024-03-06T05:47:02;5.40;99.90
5647;DHT22;2845;48.626;9.362;2024-03-06T05:49:54;5.50;99.90
5647;DHT22;2845;48.626;9.362;2024-03-06T05:52:45;5.40;99.90
5647;DHT22;2845;48.626;9.362;2024-03-06T05:55:37;5.40;99.90
5647;DHT22;2845;48.626;9.362;2024-03-06T05:58:29;5.50;99.90
5647;DHT22;2845;48.626;9.362;2024-03-06T06:01:03;5.50;99.90
5647;DHT22;2845;48.626;9.362;2024-03-06T06:03:39;5.60;99.90
5647;DHT22;2845;48.626;9.362;2024-03-06T06:06:14;5.50;99.90
5647;DHT22;2845;48.626;9.362;2024-03-06T06:08:49;5.50;99.90
5647;DHT22;2845;48.626;9.362;2024-03-06T06:11:23;5.50;99.90
5647;DHT22;2845;48.626;9.362;2024-03-06T06:13:57;5.50;99.90
5647;DHT22;2845;48.626;9.362;2024-03-06T06:16:35;5.60;99.90
5647;DHT22;2845;48.626;9.362;2024-03-06T06:19:11;5.60;99.90
5647;DHT22;2845;48.626;9.362;2024-03-06T06:21:45;5.60;99.90
5647;DHT22;2845;48.626;9.362;2024-03-06T06:24:20;5.70;99.90
5647;DHT22;2845;48.626;9.362;2024-03-06T06:26:54;5.70;99.90
5647;DHT22;2845;48.626;9.362;2024-03-06T06:29:28;5.70;99.90
5647;DHT22;2845;48.626;9.362;2024-03-06T06:32:03;8.10;99.90
5647;DHT22;2845;48.626;9.362;2024-03-06T06:34:39;5.80;99.90
5647;DHT22;2845;48.626;9.362;2024-03-06T06:37:13;5.70;99.90
5647;DHT22;2845;48.626;9.362;2024-03-06T06:39:47;5.70;99.90
5647;DHT22;2845;48.626;9.362;2024-03-06T06:42:22;6.90;99.90
5647;DHT22;2845;48.626;9.362;2024-03-06T06:44:57;5.80;99.90
5647;DHT22;2845;48.626;9.362;2024-03-06T06:47:31;5.80;99.90
5647;DHT22;2845;48.626;9.362;2024-03-06T06:50:07;5.80;99.90
5647;DHT22;2845;48.626;9.362;2024-03-06T06:52:42;5.90;99.90
5647;DHT22;2845;48.626;9.362;2024-03-06T06:55:16;5.90;99.90
5647;DHT22;2845;48.626;9.362;2024-03-06T06:57:50;6.10;99.90
5647;DHT22;2845;48.626;9.362;2024-03-06T07:00:24;5.90;99.90
5647;DHT22;2845;48.626;9.362;2024-03-06T07:02:59;5.90;99.90
5647;DHT22;2845;48.626;9.362;2024-03-06T07:05:34;6.00;99.90
5647;DHT22;2845;48.626;9.362;2024-03-06T07:08:08;6.00;99.90
5647;DHT22;2845;48.626;9.362;2024-03-06T07:10:42;6.00;99.90
5647;DHT22;2845;48.626;9.362;2024-03-06T07:13:16;6.10;99.90
5647;DHT22;2845;48.626;9.362;2024-03-06T07:15:51;6.10;99.90
5647;DHT22;2845;48.626;9.362;2024-03-06T07:18:25;6.10;99.90
5647;DHT22;2845;48.626;9.362;2024-03-06T07:21:01;6.10;99.90
5647;DHT22;2845;48.626;9.362;2024-03-06T07:23:35;6.10;99.90
5647;DHT22;2845;48.626;9.362;2024-03-06T07:26:09;6.20;99.90
5647;DHT22;2845;48.626;9.362;2024-03-06T07:28:44;6.10;99.90
5647;DHT22;2845;48.626;9.362;2024-03-06T07:31:18;6.10;99.90
5647;DHT22;2845;48.626;9.362;2024-03-06T07:33:52;5.80;99.90
5647;DHT22;2845;48.626;9.362;2024-03-06T07:36:27;6.20;99.90
5647;DHT22;2845;48.626;9.362;2024-03-06T07:39:02;6.30;99.90
5647;DHT22;2845;48.626;9.362;2024-03-06T07:41:37;6.30;99.90
5647;DHT22;2845;48.626;9.362;2024-03-06T07:44:11;6.30;99.90
5647;DHT22;2845;48.626;9.362;2024-03-06T07:46:45;6.30;99.90
5647;DHT22;2845;48.626;9.362;2024-03-06T07:49:19;6.30;99.90
5647;DHT22;2845;48.626;9.362;2024-03-06T07:51:55;6.30;99.90
5647;DHT22;2845;48.626;9.362;2024-03-06T07:54:30;6.30;99.90
5647;DHT22;2845;48.626;9.362;2024-03-06T07:57:05;6.40;99.90
5647;DHT22;2845;48.626;9.362;2024-03-06T07:59:39;6.40;99.90
5647;DHT22;2845;48.626;9.362;2024-03-06T08:02:14;6.50;99.90
5647;DHT22;2845;48.626;9.362;2024-03-06T08:04:49;6.60;99.90
5647;DHT22;2845;48.626;9.362;2024-03-06T08:07:24;6.70;99.90
5647;DHT22;2845;48.626;9.362;2024-03-06T08:09:58;6.80;99.90
5647;DHT22;2845;48.626;9.362;2024-03-06T08:12:33;7.20;99.90
5647;DHT22;2845;48.626;9.362;2024-03-06T08:15:08;6.80;99.90
5647;DHT22;2845;48.626;9.362;2024-03-06T08:17:44;6.80;99.90
5647;DHT22;2845;48.626;9.362;2024-03-06T08:20:18;6.90;99.90
5647;DHT22;2845;48.626;9.362;2024-03-06T08:22:56;6.90;99.90
5647;DHT22;2845;48.626;9.362;2024-03-06T08:25:30;6.90;99.90
5647;DHT22;2845;48.626;9.362;2024-03-06T08:28:06;6.90;99.90
5647;DHT22;2845;48.626;9.362;2024-03-06T08:30:40;7.00;99.90
5647;DHT22;2845;48.626;9.362;2024-03-06T08:33:14;6.90;99.90
5647;DHT22;2845;48.626;9.362;2024-03-06T08:35:49;7.10;99.90
5647;DHT22;2845;48.626;9.362;2024-03-06T08:38:25;7.10;99.90
5647;DHT22;2845;48.626;9.362;2024-03-06T08:40:59;7.10;99.90
5647;DHT22;2845;48.626;9.362;2024-03-06T08:43:33;7.10;99.90
5647;DHT22;2845;48.626;9.362;2024-03-06T08:46:07;7.20;99.90
5647;DHT22;2845;48.626;9.362;2024-03-06T08:48:42;7.20;99.90
5647;DHT22;2845;48.626;9.362;2024-03-06T08:51:16;7.20;99.90
5647;DHT22;2845;48.626;9.362;2024-03-06T08:56:26;7.30;99.90
5647;DHT22;2845;48.626;9.362;2024-03-06T08:59:00;7.30;99.90
5647;DHT22;2845;48.626;9.362;2024-03-06T09:01:35;7.30;99.90
5647;DHT22;2845;48.626;9.362;2024-03-06T09:04:09;7.30;99.90
5647;DHT22;2845;48.626;9.362;2024-03-06T09:06:43;7.10;99.90
5647;DHT22;2845;48.626;9.362;2024-03-06T09:09:19;8.50;99.90
5647;DHT22;2845;48.626;9.362;2024-03-06T09:11:53;7.20;99.90
5647;DHT22;2845;48.626;9.362;2024-03-06T09:14:27;7.20;99.90
5647;DHT22;2845;48.626;9.362;2024-03-06T09:17:04;7.20;99.90
5647;DHT22;2845;48.626;9.362;2024-03-06T09:19:38;7.20;99.90
5647;DHT22;2845;48.626;9.362;2024-03-06T09:22:26;7.10;99.90
5647;DHT22;2845;48.626;9.362;2024-03-06T09:25:03;7.10;99.90
5647;DHT22;2845;48.626;9.362;2024-03-06T09:30:15;7.10;99.90
5647;DHT22;2845;48.626;9.362;2024-03-06T09:32:49;7.00;99.90
5647;DHT22;2845;48.626;9.362;2024-03-06T09:35:25;7.00;99.90
5647;DHT22;2845;48.626;9.362;2024-03-06T09:37:59;7.00;99.90
5647;DHT22;2845;48.626;9.362;2024-03-06T09:45:47;7.00;99.90
5647;DHT22;2845;48.626;9.362;2024-03-06T09:48:22;7.00;99.90
5647;DHT22;2845;48.626;9.362;2024-03-06T09:51:00;7.00;99.90
5647;DHT22;2845;48.626;9.362;2024-03-06T09:53:34;6.90;99.90
5647;DHT22;2845;48.626;9.362;2024-03-06T09:58:46;6.90;99.90
5647;DHT22;2845;48.626;9.362;2024-03-06T10:01:23;7.00;99.90
5647;DHT22;2845;48.626;9.362;2024-03-06T10:03:57;7.00;99.90
5647;DHT22;2845;48.626;9.362;2024-03-06T10:06:31;7.00;99.90
5647;DHT22;2845;48.626;9.362;2024-03-06T10:09:05;7.00;99.90
5647;DHT22;2845;48.626;9.362;2024-03-06T10:11:42;7.00;99.90
5647;DHT22;2845;48.626;9.362;2024-03-06T10:14:17;7.10;99.90
5647;DHT22;2845;48.626;9.362;2024-03-06T10:16:52;7.10;99.90
5647;DHT22;2845;48.626;9.362;2024-03-06T10:19:29;9.30;99.90
5647;DHT22;2845;48.626;9.362;2024-03-06T10:22:07;7.10;99.90
5647;DHT22;2845;48.626;9.362;2024-03-06T10:24:41;7.20;99.90
5647;DHT22;2845;48.626;9.362;2024-03-06T10:27:18;7.20;99.90
5647;DHT22;2845;48.626;9.362;2024-03-06T10:30:01;7.30;99.90
5647;DHT22;2845;48.626;9.362;2024-03-06T10:32:38;7.40;99.90
5647;DHT22;2845;48.626;9.362;2024-03-06T10:35:19;7.40;99.90
5647;DHT22;2845;48.626;9.362;2024-03-06T10:37:54;7.40;99.90
5647;DHT22;2845;48.626;9.362;2024-03-06T10:40:31;7.60;99.90
5647;DHT22;2845;48.626;9.362;2024-03-06T10:43:08;7.30;99.90
5647;DHT22;2845;48.626;9.362;2024-03-06T10:45:47;7.30;99.90
5647;DHT22;2845;48.626;9.362;2024-03-06T10:48:21;7.40;99.90
5647;DHT22;2845;48.626;9.362;2024-03-06T10:50:57;7.40;99.90
5647;DHT22;2845;48.626;9.362;2024-03-06T10:53:34;7.40;99.90
5647;DHT22;2845;48.626;9.362;2024-03-06T10:56:09;8.30;99.90
5647;DHT22;2845;48.626;9.362;2024-03-06T10:58:46;7.40;99.90
5647;DHT22;2845;48.626;9.362;2024-03-06T11:01:22;8.20;99.90
5647;DHT22;2845;48.626;9.362;2024-03-06T11:03:59;7.30;99.90
5647;DHT22;2845;48.626;9.362;2024-03-06T11:06:34;7.30;99.90
5647;DHT22;2845;48.626;9.362;2024-03-06T11:09:08;7.30;99.90
5647;DHT22;2845;48.626;9.362;2024-03-06T11:11:49;7.30;99.90
5647;DHT22;2845;48.626;9.362;2024-03-06T11:14:25;7.30;99.90
5647;DHT22;2845;48.626;9.362;2024-03-06T11:17:01;7.20;99.90
5647;DHT22;2845;48.626;9.362;2024-03-06T11:23:05;7.20;99.90
5647;DHT22;2845;48.626;9.362;2024-03-06T11:26:00;7.20;99.90
5647;DHT22;2845;48.626;9.362;2024-03-06T11:28:38;7.20;99.90
5647;DHT22;2845;48.626;9.362;2024-03-06T11:31:25;7.30;99.90
5647;DHT22;2845;48.626;9.362;2024-03-06T11:34:04;7.30;99.90
5647;DHT22;2845;48.626;9.362;2024-03-06T11:36:40;7.30;99.90
5647;DHT22;2845;48.626;9.362;2024-03-06T11:39:16;7.30;99.90
5647;DHT22;2845;48.626;9.362;2024-03-06T11:41:51;7.30;99.90
5647;DHT22;2845;48.626;9.362;2024-03-06T11:44:35;7.30;99.90
5647;DHT22;2845;48.626;9.362;2024-03-06T11:49:48;7.30;99.90
5647;DHT22;2845;48.626;9.362;2024-03-06T11:52:23;10.30;99.90
5647;DHT22;2845;48.626;9.362;2024-03-06T11:54:57;7.40;99.90
5647;DHT22;2845;48.626;9.362;2024-03-06T11:57:31;9.20;99.90
5647;DHT22;2845;48.626;9.362;2024-03-06T12:00:09;7.50;99.90
5647;DHT22;2845;48.626;9.362;2024-03-06T12:02:46;7.50;99.90
5647;DHT22;2845;48.626;9.362;2024-03-06T12:05:22;7.60;99.90
5647;DHT22;2845;48.626;9.362;2024-03-06T12:07:57;7.60;99.90
5647;DHT22;2845;48.626;9.362;2024-03-06T12:10:37;7.60;99.90
5647;DHT22;2845;48.626;9.362;2024-03-06T12:13:11;7.60;99.90
5647;DHT22;2845;48.626;9.362;2024-03-06T12:15:46;7.70;99.90
5647;DHT22;2845;48.626;9.362;2024-03-06T12:18:23;7.70;99.90
5647;DHT22;2845;48.626;9.362;2024-03-06T12:21:00;7.70;99.90
5647;DHT22;2845;48.626;9.362;2024-03-06T12:23:36;7.70;99.90
5647;DHT22;2845;48.626;9.362;2024-03-06T12:26:10;7.70;99.90
5647;DHT22;2845;48.626;9.362;2024-03-06T12:28:45;7.70;99.90
5647;DHT22;2845;48.626;9.362;2024-03-06T12:31:19;11.50;99.90
5647;DHT22;2845;48.626;9.362;2024-03-06T12:33:58;11.00;99.90
5647;DHT22;2845;48.626;9.362;2024-03-06T12:36:36;7.60;99.90
5647;DHT22;2845;48.626;9.362;2024-03-06T12:39:10;7.60;99.90
5647;DHT22;2845;48.626;9.362;2024-03-06T12:41:46;7.60;99.90
5647;DHT22;2845;48.626;9.362;2024-03-06T12:44:21;7.60;99.90
5647;DHT22;2845;48.626;9.362;2024-03-06T12:46:56;7.60;99.90
5647;DHT22;2845;48.626;9.362;2024-03-06T12:52:07;5.50;99.90
5647;DHT22;2845;48.626;9.362;2024-03-06T12:54:41;8.50;99.90
5647;DHT22;2845;48.626;9.362;2024-03-06T12:57:16;7.60;99.90
5647;DHT22;2845;48.626;9.362;2024-03-06T12:59:51;7.70;99.90
5647;DHT22;2845;48.626;9.362;2024-03-06T13:02:26;5.40;99.90
5647;DHT22;2845;48.626;9.362;2024-03-06T13:07:37;3.50;99.90
5647;DHT22;2845;48.626;9.362;2024-03-06T13:10:12;7.50;99.90
5647;DHT22;2845;48.626;9.362;2024-03-06T13:12:46;7.60;99.90
5647;DHT22;2845;48.626;9.362;2024-03-06T13:15:21;7.60;99.90
5647;DHT22;2845;48.626;9.362;2024-03-06T13:17:56;7.90;99.90
5647;DHT22;2845;48.626;9.362;2024-03-06T13:28:20;7.60;99.90
5647;DHT22;2845;48.626;9.362;2024-03-06T13:30:55;8.30;99.90
5647;DHT22;2845;48.626;9.362;2024-03-06T13:33:29;7.70;99.90
5647;DHT22;2845;48.626;9.362;2024-03-06T13:36:06;7.60;99.90
5647;DHT22;2845;48.626;9.362;2024-03-06T13:38:41;7.60;99.90
5647;DHT22;2845;48.626;9.362;2024-03-06T13:43:51;7.60;99.90
5647;DHT22;2845;48.626;9.362;2024-03-06T13:46:25;7.60;99.90
5647;DHT22;2845;48.626;9.362;2024-03-06T13:51:36;7.70;99.90
5647;DHT22;2845;48.626;9.362;2024-03-06T13:54:10;7.70;99.90
5647;DHT22;2845;48.626;9.362;2024-03-06T13:56:44;7.70;99.90
5647;DHT22;2845;48.626;9.362;2024-03-06T13:59:19;7.70;99.90
5647;DHT22;2845;48.626;9.362;2024-03-06T14:01:54;7.70;99.90
5647;DHT22;2845;48.626;9.362;2024-03-06T14:04:28;7.70;99.90
5647;DHT22;2845;48.626;9.362;2024-03-06T14:07:04;7.80;99.90
5647;DHT22;2845;48.626;9.362;2024-03-06T14:09:40;7.80;99.90
5647;DHT22;2845;48.626;9.362;2024-03-06T14:12:14;7.70;99.90
5647;DHT22;2845;48.626;9.362;2024-03-06T14:14:48;7.70;99.90
5647;DHT22;2845;48.626;9.362;2024-03-06T14:17:22;7.70;99.90
5647;DHT22;2845;48.626;9.362;2024-03-06T14:19:56;7.50;99.90
5647;DHT22;2845;48.626;9.362;2024-03-06T14:25:07;7.60;99.90
5647;DHT22;2845;48.626;9.362;2024-03-06T14:27:41;7.60;99.90
5647;DHT22;2845;48.626;9.362;2024-03-06T14:30:16;7.60;99.90
5647;DHT22;2845;48.626;9.362;2024-03-06T14:32:51;7.60;99.90
5647;DHT22;2845;48.626;9.362;2024-03-06T14:35:26;7.60;99.90
5647;DHT22;2845;48.626;9.362;2024-03-06T14:38:01;7.60;99.90
5647;DHT22;2845;48.626;9.362;2024-03-06T14:40:36;7.60;99.90
5647;DHT22;2845;48.626;9.362;2024-03-06T14:43:10;7.60;99.90
5647;DHT22;2845;48.626;9.362;2024-03-06T14:45:45;7.50;99.90
5647;DHT22;2845;48.626;9.362;2024-03-06T14:48:19;7.50;99.90
5647;DHT22;2845;48.626;9.362;2024-03-06T14:50:53;7.60;99.90
5647;DHT22;2845;48.626;9.362;2024-03-06T14:53:29;7.60;99.90
5647;DHT22;2845;48.626;9.362;2024-03-06T14:56:03;7.50;99.90
5647;DHT22;2845;48.626;9.362;2024-03-06T14:58:38;7.60;99.90
5647;DHT22;2845;48.626;9.362;2024-03-06T15:01:12;7.70;99.90
5647;DHT22;2845;48.626;9.362;2024-03-06T15:03:46;7.80;99.90
5647;DHT22;2845;48.626;9.362;2024-03-06T15:06:21;7.80;99.90
5647;DHT22;2845;48.626;9.362;2024-03-06T15:08:56;7.90;99.90
5647;DHT22;2845;48.626;9.362;2024-03-06T15:11:31;7.80;99.90
5647;DHT22;2845;48.626;9.362;2024-03-06T15:14:06;7.80;99.90
5647;DHT22;2845;48.626;9.362;2024-03-06T15:16:41;7.70;99.90
5647;DHT22;2845;48.626;9.362;2024-03-06T15:21:50;7.60;99.90
5647;DHT22;2845;48.626;9.362;2024-03-06T15:27:01;7.60;99.90
5647;DHT22;2845;48.626;9.362;2024-03-06T15:29:35;8.40;99.90
5647;DHT22;2845;48.626;9.362;2024-03-06T15:32:10;7.60;99.90
5647;DHT22;2845;48.626;9.362;2024-03-06T15:34:44;7.60;99.90
5647;DHT22;2845;48.626;9.362;2024-03-06T15:37:18;7.40;99.90
5647;DHT22;2845;48.626;9.362;2024-03-06T15:39:56;7.60;99.90
5647;DHT22;2845;48.626;9.362;2024-03-06T15:42:30;7.60;99.90
5647;DHT22;2845;48.626;9.362;2024-03-06T15:47:40;7.50;99.90
5647;DHT22;2845;48.626;9.362;2024-03-06T15:50:16;7.50;99.90
5647;DHT22;2845;48.626;9.362;2024-03-06T15:52:50;7.50;99.90
5647;DHT22;2845;48.626;9.362;2024-03-06T15:55:26;7.50;99.90
5647;DHT22;2845;48.626;9.362;2024-03-06T15:58:00;7.50;99.90
5647;DHT22;2845;48.626;9.362;2024-03-06T16:00:34;7.60;99.90
5647;DHT22;2845;48.626;9.362;2024-03-06T16:03:08;7.50;99.90
5647;DHT22;2845;48.626;9.362;2024-03-06T16:05:43;7.50;99.90
5647;DHT22;2845;48.626;9.362;2024-03-06T16:08:18;7.50;99.90
5647;DHT22;2845;48.626;9.362;2024-03-06T16:10:59;7.50;99.90
5647;DHT22;2845;48.626;9.362;2024-03-06T16:13:34;7.60;99.90
5647;DHT22;2845;48.626;9.362;2024-03-06T16:16:08;7.60;99.90
5647;DHT22;2845;48.626;9.362;2024-03-06T16:18:42;7.50;99.90
5647;DHT22;2845;48.626;9.362;2024-03-06T16:23:52;7.50;99.90
5647;DHT22;2845;48.626;9.362;2024-03-06T16:26:29;7.50;99.90
5647;DHT22;2845;48.626;9.362;2024-03-06T16:29:04;7.50;99.90
5647;DHT22;2845;48.626;9.362;2024-03-06T16:31:39;7.50;99.90
5647;DHT22;2845;48.626;9.362;2024-03-06T16:34:13;9.80;99.90
5647;DHT22;2845;48.626;9.362;2024-03-06T16:36:49;7.40;99.90
5647;DHT22;2845;48.626;9.362;2024-03-06T16:39:23;7.40;99.90
5647;DHT22;2845;48.626;9.362;2024-03-06T16:41:59;7.40;99.90
5647;DHT22;2845;48.626;9.362;2024-03-06T16:44:33;7.30;99.90
5647;DHT22;2845;48.626;9.362;2024-03-06T16:47:07;9.20;99.90
5647;DHT22;2845;48.626;9.362;2024-03-06T16:49:42;7.40;99.90
5647;DHT22;2845;48.626;9.362;2024-03-06T16:52:16;7.30;99.90
5647;DHT22;2845;48.626;9.362;2024-03-06T16:54:50;7.40;99.90
5647;DHT22;2845;48.626;9.362;2024-03-06T16:57:25;9.10;99.90
5647;DHT22;2845;48.626;9.362;2024-03-06T16:59:59;7.30;99.90
5647;DHT22;2845;48.626;9.362;2024-03-06T17:02:34;7.30;99.90
5647;DHT22;2845;48.626;9.362;2024-03-06T17:05:08;7.30;99.90
5647;DHT22;2845;48.626;9.362;2024-03-06T17:07:43;7.30;99.90
5647;DHT22;2845;48.626;9.362;2024-03-06T17:10:18;7.20;99.90
5647;DHT22;2845;48.626;9.362;2024-03-06T17:12:53;7.10;99.90
5647;DHT22;2845;48.626;9.362;2024-03-06T17:15:28;7.20;99.90
5647;DHT22;2845;48.626;9.362;2024-03-06T17:18:03;7.10;99.90
5647;DHT22;2845;48.626;9.362;2024-03-06T17:20:38;7.10;99.90
5647;DHT22;2845;48.626;9.362;2024-03-06T17:23:12;7.10;99.90
5647;DHT22;2845;48.626;9.362;2024-03-06T17:25:46;7.10;99.90
5647;DHT22;2845;48.626;9.362;2024-03-06T17:28:23;7.20;99.90
5647;DHT22;2845;48.626;9.362;2024-03-06T17:30:58;7.10;99.90
5647;DHT22;2845;48.626;9.362;2024-03-06T17:33:32;7.10;99.90
5647;DHT22;2845;48.626;9.362;2024-03-06T17:36:06;7.10;99.90
5647;DHT22;2845;48.626;9.362;2024-03-06T17:38:41;7.10;99.90
5647;DHT22;2845;48.626;9.362;2024-03-06T17:41:19;7.10;99.90
5647;DHT22;2845;48.626;9.362;2024-03-06T17:43:54;7.10;99.90
5647;DHT22;2845;48.626;9.362;2024-03-06T17:46:29;7.10;99.90
5647;DHT22;2845;48.626;9.362;2024-03-06T17:49:04;7.10;99.90
5647;DHT22;2845;48.626;9.362;2024-03-06T17:51:38;7.10;99.90
5647;DHT22;2845;48.626;9.362;2024-03-06T17:54:12;7.10;99.90
5647;DHT22;2845;48.626;9.362;2024-03-06T17:56:47;7.10;99.90
5647;DHT22;2845;48.626;9.362;2024-03-06T17:59:23;7.10;99.90
5647;DHT22;2845;48.626;9.362;2024-03-06T18:04:33;7.10;99.90
5647;DHT22;2845;48.626;9.362;2024-03-06T18:07:07;7.00;99.90